createdAt,value
2022-10-29T00:13:07.288Z,16.00
2022-10-29T00:21:14.979Z,15.90
2022-10-29T00:29:22.830Z,15.90
2022-10-29T00:37:28.074Z,15.80
2022-10-29T00:45:35.990Z,15.60
2022-10-29T00:53:45.269Z,15.60
2022-10-29T01:01:54.155Z,15.50
2022-10-29T01:09:59.970Z,15.40
2022-10-29T01:18:20.542Z,15.50
2022-10-29T01:26:50.812Z,15.40
2022-10-29T01:35:03.329Z,15.30
2022-10-29T01:43:14.981Z,15.20
2022-10-29T01:51:26.155Z,15.30
2022-10-29T01:59:43.269Z,15.30
2022-10-29T02:08:05.376Z,15.20
2022-10-29T02:16:12.359Z,15.10
2022-10-29T02:24:20.290Z,15.10
2022-10-29T02:32:25.552Z,15.10
2022-10-29T02:40:33.466Z,14.90
2022-10-29T02:48:38.724Z,14.70
2022-10-29T02:56:46.593Z,14.70
2022-10-29T03:04:52.293Z,14.50
2022-10-29T03:13:02.362Z,14.40
2022-10-29T03:21:07.875Z,14.10
2022-10-29T03:29:15.744Z,14.20
2022-10-29T03:37:21.012Z,14.10
2022-10-29T03:45:29.084Z,14.00
2022-10-29T03:53:34.680Z,14.00
2022-10-29T04:01:43.496Z,13.70
2022-10-29T04:09:48.887Z,13.60
2022-10-29T04:17:57.104Z,13.50
2022-10-29T04:28:36.788Z,13.50
2022-10-29T04:34:31.188Z,13.30
2022-10-29T04:42:39.600Z,13.20
2022-10-29T04:50:47.475Z,13.30
2022-10-29T04:58:55.329Z,13.40
2022-10-29T05:07:03.195Z,13.50
2022-10-29T05:15:09.900Z,13.50
2022-10-29T05:23:17.888Z,13.60
2022-10-29T06:31:31.148Z,13.40
2022-10-29T06:39:36.440Z,14.30
2022-10-29T06:47:48.379Z,14.60
2022-10-29T06:55:53.603Z,14.80
2022-10-29T07:04:01.845Z,14.60
2022-10-29T07:12:07.403Z,15.10
2022-10-29T07:20:15.708Z,15.10
2022-10-29T07:28:23.836Z,15.80
2022-10-29T07:36:33.605Z,16.00
2022-10-29T07:44:38.833Z,15.90
2022-10-29T07:52:48.326Z,15.40
2022-10-29T08:00:54.105Z,16.60
2022-10-29T08:09:02.019Z,16.70
2022-10-29T08:17:07.283Z,17.50
2022-10-29T08:25:17.154Z,18.10
2022-10-29T08:33:22.469Z,20.80
2022-10-29T08:41:40.271Z,29.30
2022-10-29T08:49:49.614Z,36.40
2022-10-29T08:58:00.301Z,39.10
2022-10-29T09:06:13.096Z,40.50
2022-10-29T09:14:39.688Z,41.90
2022-10-29T09:22:52.893Z,39.80
2022-10-29T09:31:10.038Z,41.80
2022-10-29T09:39:20.716Z,43.30
2022-10-29T09:47:41.741Z,44.00
2022-10-29T09:55:53.738Z,44.80
2022-10-29T10:04:09.157Z,45.20
2022-10-29T10:12:15.390Z,44.50
2022-10-29T10:20:34.920Z,37.20
2022-10-29T10:28:40.201Z,30.80
2022-10-29T10:36:52.073Z,28.00
2022-10-29T10:45:01.823Z,26.50
2022-10-29T10:53:20.464Z,25.40
2022-10-29T11:01:31.445Z,25.00
2022-10-29T11:09:43.272Z,24.80
2022-10-29T11:17:54.706Z,24.70
2022-10-29T11:26:08.725Z,24.50
2022-10-29T11:34:18.482Z,24.60
2022-10-29T11:42:26.909Z,24.60
2022-10-29T11:50:41.901Z,24.00
2022-10-29T11:59:00.416Z,24.40
2022-10-29T12:07:25.491Z,24.40
2022-10-29T12:15:39.927Z,24.40
2022-10-29T12:23:56.734Z,24.40
2022-10-29T12:32:13.176Z,24.10
2022-10-29T12:40:22.839Z,24.00
2022-10-29T12:48:41.642Z,24.10
2022-10-29T12:56:49.496Z,24.00
2022-10-29T13:05:21.372Z,23.80
2022-10-29T13:13:45.382Z,23.70
2022-10-29T13:22:25.312Z,23.80
2022-10-29T13:30:32.765Z,23.70
2022-10-29T13:38:58.599Z,23.60
2022-10-29T13:47:22.815Z,23.60
2022-10-29T13:55:35.187Z,23.50
2022-10-29T14:03:54.429Z,23.40
2022-10-29T14:12:09.844Z,23.30
2022-10-29T14:20:26.766Z,23.20
2022-10-29T14:28:35.626Z,23.00
2022-10-29T14:36:43.742Z,22.90
2022-10-29T14:44:56.100Z,22.80
2022-10-29T14:53:04.565Z,22.70
2022-10-29T15:01:20.616Z,22.60
2022-10-29T15:09:29.890Z,22.40
2022-10-29T15:17:38.917Z,22.20
2022-10-29T15:25:46.945Z,22.10
2022-10-29T15:33:57.904Z,22.00
2022-10-29T15:42:03.979Z,21.80
2022-10-29T15:50:15.650Z,21.60
2022-10-29T15:58:23.911Z,21.40
2022-10-29T16:06:31.837Z,21.30
2022-10-29T16:14:37.074Z,21.20
2022-10-29T16:22:45.024Z,21.10
2022-10-29T16:30:56.214Z,21.00
2022-10-29T16:39:04.099Z,20.80
2022-10-29T16:47:09.349Z,20.70
2022-10-29T16:55:17.855Z,20.60
2022-10-29T17:03:23.213Z,20.40
2022-10-29T17:11:31.072Z,20.30
2022-10-29T17:19:36.503Z,20.10
2022-10-29T17:27:45.112Z,20.00
2022-10-29T17:35:50.509Z,19.80
2022-10-29T17:43:59.004Z,19.80
2022-10-29T17:52:04.232Z,19.70
2022-10-29T18:00:13.941Z,19.60
2022-10-29T18:08:19.219Z,19.60
2022-10-29T18:16:29.154Z,19.60
2022-10-29T18:24:34.430Z,19.50
2022-10-29T18:32:42.358Z,19.40
2022-10-29T18:40:47.622Z,19.20
2022-10-29T18:48:55.970Z,19.00
2022-10-29T18:57:01.219Z,19.00
2022-10-29T19:05:10.097Z,18.90
2022-10-29T19:13:15.439Z,18.80
2022-10-29T19:21:23.304Z,18.70
2022-10-29T19:29:28.708Z,18.60
2022-10-29T19:37:36.577Z,18.50
2022-10-29T19:45:42.492Z,18.20
2022-10-29T19:53:51.566Z,18.00
2022-10-29T20:01:57.003Z,17.60
2022-10-29T20:10:05.200Z,17.30
2022-10-29T20:18:10.460Z,17.60
2022-10-29T20:26:18.504Z,17.60
2022-10-29T20:34:23.960Z,17.70
2022-10-29T20:42:31.816Z,17.70
2022-10-29T20:50:37.246Z,17.60
2022-10-29T20:58:45.168Z,17.60
2022-10-29T21:06:50.436Z,17.60
2022-10-29T21:14:58.347Z,17.60
2022-10-29T21:23:03.605Z,17.60
2022-10-29T21:31:11.847Z,17.60
2022-10-29T21:39:17.155Z,17.60
2022-10-29T21:47:24.983Z,17.50
2022-10-29T21:55:30.471Z,17.50
2022-10-29T22:03:41.551Z,17.50
2022-10-29T22:11:46.878Z,17.50
2022-10-29T22:19:54.727Z,17.30
2022-10-29T22:28:00.444Z,17.10
2022-10-29T22:36:14.665Z,17.00
2022-10-29T22:44:19.925Z,16.50
2022-10-29T22:52:27.859Z,16.60
2022-10-29T23:00:33.142Z,16.60
2022-10-29T23:08:41.268Z,16.60
2022-10-29T23:16:46.555Z,16.50
2022-10-29T23:24:54.611Z,16.40
2022-10-29T23:33:00.148Z,16.00
2022-10-29T23:41:11.443Z,15.70
2022-10-29T23:49:16.755Z,15.50
2022-10-29T23:57:24.653Z,15.40
